createdAt,value
2018-03-28T00:01:01.559Z,7.00
2018-03-28T00:03:29.215Z,7.00
2018-03-28T00:05:56.647Z,6.90
2018-03-28T00:08:24.139Z,6.90
2018-03-28T00:10:51.604Z,6.90
2018-03-28T00:13:19.163Z,6.90
2018-03-28T00:15:46.636Z,6.90
2018-03-28T00:18:14.091Z,7.00
2018-03-28T00:20:41.565Z,7.00
2018-03-28T00:23:09.124Z,6.90
2018-03-28T00:25:36.689Z,7.00
2018-03-28T00:28:04.144Z,7.00
2018-03-28T00:30:31.604Z,7.00
2018-03-28T00:32:59.047Z,7.00
2018-03-28T00:35:26.524Z,7.00
2018-03-28T00:37:53.960Z,7.00
2018-03-28T00:40:21.408Z,7.00
2018-03-28T00:42:48.908Z,7.00
2018-03-28T00:45:16.373Z,6.90
2018-03-28T00:47:43.812Z,6.90
2018-03-28T00:50:11.261Z,6.90
2018-03-28T00:52:38.687Z,6.90
2018-03-28T00:55:06.132Z,7.00
2018-03-28T00:57:33.568Z,7.00
2018-03-28T01:00:01.037Z,7.00
2018-03-28T01:02:28.471Z,7.00
2018-03-28T01:04:55.967Z,7.00
2018-03-28T01:07:23.396Z,7.00
2018-03-28T01:09:50.839Z,7.00
2018-03-28T01:12:18.343Z,7.00
2018-03-28T01:14:45.809Z,7.00
2018-03-28T01:17:13.268Z,7.00
2018-03-28T01:19:40.736Z,7.00
2018-03-28T01:22:08.205Z,7.10
2018-03-28T01:24:35.662Z,7.10
2018-03-28T01:27:03.188Z,7.20
2018-03-28T01:29:30.631Z,7.20
2018-03-28T01:31:58.956Z,7.30
2018-03-28T01:34:26.397Z,7.30
2018-03-28T01:36:53.841Z,7.30
2018-03-28T01:39:22.059Z,7.10
2018-03-28T01:41:49.512Z,7.10
2018-03-28T01:44:16.979Z,7.10
2018-03-28T01:46:44.420Z,7.10
2018-03-28T01:49:11.904Z,7.10
2018-03-28T01:51:39.339Z,7.20
2018-03-28T01:54:06.829Z,7.20
2018-03-28T01:56:34.279Z,7.20
2018-03-28T01:59:01.758Z,7.30
2018-03-28T02:01:29.228Z,7.40
2018-03-28T02:03:56.658Z,7.40
2018-03-28T02:06:24.231Z,7.40
2018-03-28T02:08:51.696Z,7.50
2018-03-28T02:11:19.108Z,7.50
2018-03-28T02:13:47.314Z,7.50
2018-03-28T02:16:14.771Z,7.50
2018-03-28T02:18:42.256Z,7.50
2018-03-28T02:21:09.729Z,7.60
2018-03-28T02:23:37.264Z,7.60
2018-03-28T02:26:04.740Z,7.60
2018-03-28T02:28:32.180Z,7.70
2018-03-28T02:30:59.672Z,7.70
2018-03-28T02:33:27.108Z,7.60
2018-03-28T02:35:54.561Z,7.60
2018-03-28T02:38:22.043Z,7.60
2018-03-28T02:40:49.511Z,7.60
2018-03-28T02:43:16.949Z,7.60
2018-03-28T02:45:44.448Z,7.60
2018-03-28T02:48:11.900Z,7.60
2018-03-28T02:50:39.358Z,7.60
2018-03-28T02:53:06.824Z,7.60
2018-03-28T02:55:34.265Z,7.60
2018-03-28T02:58:01.704Z,7.60
2018-03-28T03:00:29.174Z,7.70
2018-03-28T03:02:56.609Z,7.60
2018-03-28T03:05:24.828Z,7.60
2018-03-28T03:07:52.325Z,7.60
2018-03-28T03:10:19.778Z,7.70
2018-03-28T03:12:47.215Z,7.70
2018-03-28T03:15:14.663Z,7.70
2018-03-28T03:17:42.100Z,7.70
2018-03-28T03:20:10.300Z,7.70
2018-03-28T03:22:37.888Z,7.70
2018-03-28T03:25:05.450Z,7.70
2018-03-28T03:27:32.882Z,7.70
2018-03-28T03:30:00.355Z,7.70
2018-03-28T03:32:27.791Z,7.70
2018-03-28T03:34:55.991Z,7.70
2018-03-28T03:37:23.431Z,7.70
2018-03-28T03:39:51.628Z,7.70
2018-03-28T03:42:19.120Z,7.70
2018-03-28T03:44:46.581Z,7.70
2018-03-28T03:47:14.019Z,7.70
2018-03-28T03:49:41.460Z,7.70
2018-03-28T03:52:08.900Z,7.70
2018-03-28T03:54:37.141Z,7.70
2018-03-28T03:57:04.583Z,7.60
2018-03-28T03:59:32.060Z,7.70
2018-03-28T04:01:59.536Z,7.70
2018-03-28T04:04:26.988Z,7.70
2018-03-28T04:06:54.437Z,7.70
2018-03-28T04:09:21.913Z,7.70
2018-03-28T04:11:49.383Z,7.70
2018-03-28T04:14:16.839Z,7.80
2018-03-28T04:16:44.283Z,7.80
2018-03-28T04:19:11.724Z,7.80
2018-03-28T04:21:39.212Z,7.80
2018-03-28T04:24:06.675Z,7.70
2018-03-28T04:26:34.140Z,7.70
2018-03-28T04:29:01.580Z,7.70
2018-03-28T04:31:29.055Z,7.70
2018-03-28T04:33:56.488Z,7.70
2018-03-28T04:36:23.983Z,7.70
2018-03-28T04:38:51.419Z,7.70
2018-03-28T04:41:18.904Z,7.70
2018-03-28T04:43:46.380Z,7.70
2018-03-28T04:46:13.811Z,7.80
2018-03-28T04:48:41.252Z,7.80
2018-03-28T04:51:08.762Z,7.80
2018-03-28T04:53:36.198Z,7.80
2018-03-28T04:56:03.680Z,7.80
2018-03-28T04:58:31.112Z,7.80
2018-03-28T05:00:58.572Z,7.80
2018-03-28T05:03:26.061Z,7.70
2018-03-28T05:05:53.496Z,7.80
2018-03-28T05:08:20.948Z,7.70
2018-03-28T05:10:48.438Z,7.80
2018-03-28T05:13:15.888Z,7.70
2018-03-28T05:15:43.407Z,7.80
2018-03-28T05:18:10.823Z,7.80
2018-03-28T05:20:38.292Z,7.80
2018-03-28T05:23:05.852Z,7.90
2018-03-28T05:25:33.311Z,8.00
2018-03-28T05:28:00.750Z,8.00
2018-03-28T05:30:28.192Z,8.10
2018-03-28T05:32:55.696Z,8.10
2018-03-28T05:35:23.164Z,8.10
2018-03-28T05:37:50.651Z,8.10
2018-03-28T05:40:18.183Z,8.10
2018-03-28T05:42:45.643Z,8.20
2018-03-28T05:45:13.059Z,8.20
2018-03-28T05:47:41.284Z,8.20
2018-03-28T05:50:08.750Z,8.20
2018-03-28T05:52:36.266Z,8.20
2018-03-28T05:55:03.689Z,8.30
2018-03-28T05:57:31.127Z,8.30
2018-03-28T05:59:58.602Z,8.30
2018-03-28T06:02:26.047Z,8.30
2018-03-28T06:04:53.490Z,8.30
2018-03-28T06:07:21.028Z,8.30
2018-03-28T06:09:48.419Z,8.30
2018-03-28T06:12:15.864Z,8.30
2018-03-28T06:14:43.359Z,8.30
2018-03-28T06:17:11.036Z,8.30
2018-03-28T06:19:38.476Z,8.20
2018-03-28T06:22:05.930Z,8.20
2018-03-28T06:24:33.391Z,8.20
2018-03-28T06:27:01.576Z,8.20
2018-03-28T06:29:29.020Z,8.20
2018-03-28T06:31:56.460Z,8.30
2018-03-28T06:34:24.784Z,8.40
2018-03-28T06:36:52.195Z,8.40
2018-03-28T06:39:20.427Z,8.50
2018-03-28T06:41:47.867Z,8.50
2018-03-28T06:44:16.081Z,8.50
2018-03-28T06:46:43.517Z,8.50
2018-03-28T06:49:10.965Z,8.50
2018-03-28T06:51:38.400Z,8.50
2018-03-28T06:54:06.622Z,8.60
2018-03-28T06:56:34.054Z,8.50
2018-03-28T06:59:01.491Z,8.50
2018-03-28T07:01:29.019Z,8.60
2018-03-28T07:03:56.487Z,8.60
2018-03-28T07:06:23.939Z,8.50
2018-03-28T07:08:51.399Z,8.50
2018-03-28T07:11:18.834Z,8.50
2018-03-28T07:13:46.278Z,8.50
2018-03-28T07:16:14.516Z,8.80
2018-03-28T07:18:42.508Z,8.80
2018-03-28T07:21:09.945Z,8.90
2018-03-28T07:23:37.396Z,9.10
2018-03-28T07:26:04.836Z,9.20
2018-03-28T07:28:32.280Z,9.30
2018-03-28T07:30:59.720Z,9.30
2018-03-28T07:33:27.168Z,9.40
2018-03-28T07:35:54.704Z,9.40
2018-03-28T07:38:22.148Z,9.60
2018-03-28T07:40:49.579Z,9.60
2018-03-28T07:43:17.783Z,9.50
2018-03-28T07:45:45.274Z,9.50
2018-03-28T07:48:12.736Z,9.40
2018-03-28T07:50:40.167Z,9.30
2018-03-28T07:53:07.652Z,9.30
2018-03-28T07:55:35.103Z,9.30
2018-03-28T07:58:02.544Z,9.20
2018-03-28T08:00:30.012Z,9.30
2018-03-28T08:02:57.452Z,9.30
2018-03-28T08:05:25.680Z,9.20
2018-03-28T08:07:53.178Z,9.20
2018-03-28T08:10:20.695Z,9.10
2018-03-28T08:12:48.159Z,9.10
2018-03-28T08:15:15.619Z,9.10
2018-03-28T08:17:43.060Z,9.30
2018-03-28T08:20:10.551Z,9.40
2018-03-28T08:22:38.028Z,9.60
2018-03-28T08:25:05.463Z,9.60
2018-03-28T08:27:32.900Z,9.80
2018-03-28T08:30:00.355Z,10.00
2018-03-28T08:32:27.829Z,10.30
2018-03-28T08:34:55.327Z,10.50
2018-03-28T08:37:22.855Z,10.70
2018-03-28T08:39:50.299Z,12.50
2018-03-28T08:42:17.805Z,11.50
2018-03-28T08:44:45.342Z,11.50
2018-03-28T08:47:12.905Z,11.90
2018-03-28T08:49:40.390Z,12.20
2018-03-28T08:52:07.828Z,12.50
2018-03-28T08:54:35.290Z,12.70
2018-03-28T08:57:02.771Z,12.80
2018-03-28T08:59:30.225Z,12.70
2018-03-28T09:01:57.716Z,12.80
2018-03-28T09:04:25.263Z,12.90
2018-03-28T09:06:52.702Z,13.00
2018-03-28T09:09:20.183Z,13.10
2018-03-28T09:11:47.620Z,13.10
2018-03-28T09:14:15.077Z,13.10
2018-03-28T09:16:42.567Z,13.10
2018-03-28T09:19:10.046Z,13.20
2018-03-28T09:21:37.472Z,13.30
2018-03-28T09:24:04.934Z,13.20
2018-03-28T09:26:32.411Z,13.20
2018-03-28T09:28:59.860Z,13.30
2018-03-28T09:31:27.345Z,13.20
2018-03-28T09:33:54.796Z,13.10
2018-03-28T09:36:22.340Z,13.20
2018-03-28T09:38:49.818Z,13.10
2018-03-28T09:41:17.244Z,13.10
2018-03-28T09:43:44.747Z,13.10
2018-03-28T09:46:12.288Z,13.10
2018-03-28T09:48:39.780Z,13.10
2018-03-28T09:51:07.240Z,13.30
2018-03-28T09:53:34.691Z,13.40
2018-03-28T09:56:02.203Z,13.40
2018-03-28T09:58:29.702Z,13.40
2018-03-28T10:01:02.788Z,13.40
2018-03-28T10:03:30.233Z,13.40
2018-03-28T10:05:57.691Z,13.40
2018-03-28T10:08:26.684Z,13.10
2018-03-28T10:10:53.444Z,13.10
2018-03-28T10:13:20.930Z,13.00
2018-03-28T10:15:48.399Z,12.80
2018-03-28T10:18:15.855Z,12.60
2018-03-28T10:20:43.313Z,12.40
2018-03-28T10:23:10.761Z,12.40
2018-03-28T10:25:38.256Z,12.20
2018-03-28T10:28:05.708Z,12.30
2018-03-28T10:30:33.156Z,12.40
2018-03-28T10:33:00.707Z,12.50
2018-03-28T10:35:28.140Z,12.60
2018-03-28T10:37:56.353Z,12.80
2018-03-28T10:40:23.820Z,12.80
2018-03-28T10:42:51.240Z,12.60
2018-03-28T10:45:19.553Z,12.30
2018-03-28T10:47:47.039Z,12.20
2018-03-28T10:50:14.500Z,12.00
2018-03-28T10:52:41.960Z,11.90
2018-03-28T10:55:09.435Z,11.90
2018-03-28T10:57:36.879Z,11.70
2018-03-28T11:00:04.349Z,11.50
2018-03-28T11:02:31.807Z,11.50
2018-03-28T11:04:59.372Z,11.40
2018-03-28T11:07:26.816Z,11.30
2018-03-28T11:09:54.268Z,11.30
2018-03-28T11:12:21.726Z,11.20
2018-03-28T11:14:49.214Z,11.20
2018-03-28T11:17:16.656Z,11.10
2018-03-28T11:19:44.108Z,11.00
2018-03-28T11:22:11.600Z,11.00
2018-03-28T11:24:39.076Z,11.00
2018-03-28T11:27:06.512Z,10.90
2018-03-28T11:29:33.982Z,10.90
2018-03-28T11:32:01.451Z,10.90
2018-03-28T11:34:28.903Z,10.90
2018-03-28T11:36:56.371Z,10.90
2018-03-28T11:39:23.820Z,10.90
2018-03-28T11:41:51.274Z,10.80
2018-03-28T11:44:18.771Z,10.80
2018-03-28T11:46:46.223Z,10.80
2018-03-28T11:49:13.688Z,10.90
2018-03-28T11:51:41.201Z,11.10
2018-03-28T11:54:08.635Z,11.20
2018-03-28T11:56:36.850Z,11.30
2018-03-28T11:59:04.312Z,11.20
2018-03-28T12:01:31.878Z,11.20
2018-03-28T12:03:59.338Z,11.10
2018-03-28T12:06:26.835Z,11.00
2018-03-28T12:08:54.289Z,11.10
2018-03-28T12:11:21.751Z,11.10
2018-03-28T12:13:49.219Z,11.20
2018-03-28T12:16:16.681Z,11.40
2018-03-28T12:18:44.111Z,11.50
2018-03-28T12:21:11.569Z,11.60
2018-03-28T12:23:39.007Z,11.70
2018-03-28T12:26:06.451Z,11.60
2018-03-28T12:28:34.679Z,11.40
2018-03-28T12:31:02.155Z,11.40
2018-03-28T12:33:29.621Z,11.30
2018-03-28T12:35:57.958Z,11.10
2018-03-28T12:38:25.488Z,11.00
2018-03-28T12:40:52.940Z,10.90
2018-03-28T12:43:20.491Z,10.90
2018-03-28T12:45:47.945Z,10.90
2018-03-28T12:48:15.416Z,10.90
2018-03-28T12:50:42.900Z,10.80
2018-03-28T12:53:10.440Z,10.60
2018-03-28T12:55:37.888Z,10.60
2018-03-28T12:58:05.357Z,10.60
2018-03-28T13:00:32.815Z,10.40
2018-03-28T13:03:01.099Z,10.40
2018-03-28T13:05:28.564Z,10.40
2018-03-28T13:07:56.073Z,10.40
2018-03-28T13:10:23.561Z,10.40
2018-03-28T13:12:50.992Z,10.40
2018-03-28T13:15:19.199Z,10.40
2018-03-28T13:17:46.652Z,10.40
2018-03-28T13:20:14.153Z,10.30
2018-03-28T13:22:41.609Z,10.30
2018-03-28T13:25:09.149Z,10.30
2018-03-28T13:27:36.639Z,10.20
2018-03-28T13:30:04.083Z,10.10
2018-03-28T13:32:31.579Z,10.00
2018-03-28T13:34:59.023Z,9.90
2018-03-28T13:37:26.488Z,9.80
2018-03-28T13:39:53.931Z,9.70
2018-03-28T13:42:21.401Z,9.80
2018-03-28T13:44:48.839Z,9.80
2018-03-28T13:47:16.312Z,9.90
2018-03-28T13:49:43.747Z,9.90
2018-03-28T13:52:11.191Z,9.90
2018-03-28T13:54:39.403Z,10.10
2018-03-28T13:57:06.863Z,10.00
2018-03-28T13:59:34.355Z,10.10
2018-03-28T14:02:01.804Z,10.00
2018-03-28T14:04:29.245Z,10.00
2018-03-28T14:06:56.686Z,9.90
2018-03-28T14:09:24.895Z,9.70
2018-03-28T14:11:52.343Z,9.70
2018-03-28T14:14:19.784Z,9.60
2018-03-28T14:16:48.023Z,9.50
2018-03-28T14:19:15.481Z,9.40
2018-03-28T14:21:43.008Z,9.40
2018-03-28T14:24:10.368Z,9.40
2018-03-28T14:26:37.863Z,9.30
2018-03-28T14:29:05.316Z,9.40
2018-03-28T14:31:32.771Z,9.50
2018-03-28T14:34:00.425Z,9.60
2018-03-28T14:36:27.890Z,9.70
2018-03-28T14:38:55.319Z,9.70
2018-03-28T14:41:23.529Z,9.70
2018-03-28T14:43:50.970Z,9.60
2018-03-28T14:46:18.414Z,9.70
2018-03-28T14:48:45.955Z,9.60
2018-03-28T14:51:13.400Z,9.60
2018-03-28T14:53:40.936Z,9.40
2018-03-28T14:56:08.356Z,9.30
2018-03-28T14:58:35.804Z,9.20
2018-03-28T15:01:03.235Z,9.20
2018-03-28T15:03:30.695Z,9.10
2018-03-28T15:05:58.180Z,8.90
2018-03-28T15:08:25.708Z,8.70
2018-03-28T15:10:53.144Z,8.70
2018-03-28T15:13:21.485Z,8.80
2018-03-28T15:15:48.875Z,8.70
2018-03-28T15:18:16.407Z,8.80
2018-03-28T15:20:43.872Z,8.80
2018-03-28T15:23:11.315Z,8.70
2018-03-28T15:25:38.799Z,8.60
2018-03-28T15:28:06.232Z,8.60
2018-03-28T15:30:33.676Z,8.60
2018-03-28T15:33:01.159Z,8.60
2018-03-28T15:35:28.729Z,8.50
2018-03-28T15:37:56.194Z,8.40
2018-03-28T15:40:23.637Z,8.50
2018-03-28T15:42:51.085Z,8.50
2018-03-28T15:45:18.521Z,8.60
2018-03-28T15:47:46.732Z,8.60
2018-03-28T15:50:14.176Z,8.60
2018-03-28T15:52:41.649Z,8.60
2018-03-28T15:55:09.218Z,8.50
2018-03-28T15:57:36.700Z,8.50
2018-03-28T16:00:04.156Z,8.50
2018-03-28T16:02:31.628Z,8.50
2018-03-28T16:04:59.088Z,8.60
2018-03-28T16:07:26.555Z,8.60
2018-03-28T16:09:54.003Z,8.60
2018-03-28T16:12:21.544Z,8.60
2018-03-28T16:14:48.971Z,8.50
2018-03-28T16:17:16.391Z,8.40
2018-03-28T16:19:43.854Z,8.30
2018-03-28T16:22:11.314Z,8.30
2018-03-28T16:24:38.762Z,8.30
2018-03-28T16:27:06.240Z,8.20
2018-03-28T16:29:33.692Z,8.20
2018-03-28T16:32:01.151Z,8.20
2018-03-28T16:34:28.608Z,8.10
2018-03-28T16:36:56.036Z,8.10
2018-03-28T16:39:23.489Z,8.00
2018-03-28T16:41:51.761Z,8.10
2018-03-28T16:44:19.281Z,8.10
2018-03-28T16:46:46.823Z,8.10
2018-03-28T16:49:15.024Z,8.10
2018-03-28T16:51:42.593Z,8.00
2018-03-28T16:54:10.044Z,8.00
2018-03-28T16:56:37.476Z,8.00
2018-03-28T16:59:04.944Z,8.00
2018-03-28T17:01:32.415Z,8.00
2018-03-28T17:03:59.891Z,7.90
2018-03-28T17:06:27.350Z,7.90
2018-03-28T17:08:54.832Z,7.90
2018-03-28T17:11:22.277Z,7.90
2018-03-28T17:13:49.753Z,7.80
2018-03-28T17:16:17.228Z,7.70
2018-03-28T17:18:44.668Z,7.70
2018-03-28T17:21:12.130Z,7.70
2018-03-28T17:23:39.563Z,7.70
2018-03-28T17:26:07.036Z,7.60
2018-03-28T17:28:34.457Z,7.60
2018-03-28T17:31:02.688Z,7.50
2018-03-28T17:33:30.156Z,7.50
2018-03-28T17:35:57.607Z,7.50
2018-03-28T17:38:25.072Z,7.50
2018-03-28T17:40:52.551Z,7.50
2018-03-28T17:43:20.113Z,7.50
2018-03-28T17:45:47.555Z,7.50
2018-03-28T17:48:14.995Z,7.40
2018-03-28T17:50:42.476Z,7.40
2018-03-28T17:53:09.941Z,7.40
2018-03-28T17:55:37.364Z,7.40
2018-03-28T17:58:04.863Z,7.40
2018-03-28T18:00:32.292Z,7.40
2018-03-28T18:02:59.744Z,7.40
2018-03-28T18:05:27.965Z,7.40
2018-03-28T18:07:55.400Z,7.40
2018-03-28T18:10:22.888Z,7.40
2018-03-28T18:12:50.429Z,7.40
2018-03-28T18:15:17.848Z,7.40
2018-03-28T18:17:45.412Z,7.40
2018-03-28T18:20:12.918Z,7.40
2018-03-28T18:22:40.403Z,7.40
2018-03-28T18:25:07.941Z,7.40
2018-03-28T18:27:35.388Z,7.50
2018-03-28T18:30:03.595Z,7.60
2018-03-28T18:32:31.072Z,7.60
2018-03-28T18:34:58.518Z,7.60
2018-03-28T18:37:25.980Z,7.60
2018-03-28T18:39:53.454Z,7.60
2018-03-28T18:42:20.887Z,7.60
2018-03-28T18:44:48.331Z,7.60
2018-03-28T18:47:15.843Z,7.70
2018-03-28T18:49:43.292Z,7.70
2018-03-28T18:52:10.729Z,7.70
2018-03-28T18:54:38.176Z,7.80
2018-03-28T18:57:06.399Z,7.90
2018-03-28T18:59:33.858Z,7.90
2018-03-28T19:02:01.288Z,8.00
2018-03-28T19:04:28.802Z,8.20
2018-03-28T19:06:56.352Z,8.30
2018-03-28T19:09:23.803Z,8.40
2018-03-28T19:11:51.239Z,8.60
2018-03-28T19:14:18.683Z,8.60
2018-03-28T19:16:46.987Z,8.70
2018-03-28T19:19:14.424Z,8.70
2018-03-28T19:21:42.623Z,8.40
2018-03-28T19:24:10.136Z,8.40
2018-03-28T19:26:37.572Z,8.20
2018-03-28T19:29:05.018Z,8.00
2018-03-28T19:31:32.500Z,7.80
2018-03-28T19:33:59.947Z,7.70
2018-03-28T19:36:27.380Z,7.60
2018-03-28T19:38:54.896Z,7.40
2018-03-28T19:41:22.328Z,7.20
2018-03-28T19:43:49.811Z,7.20
2018-03-28T19:46:17.259Z,7.10
2018-03-28T19:48:44.724Z,7.00
2018-03-28T19:51:12.158Z,6.90
2018-03-28T19:53:39.604Z,6.80
2018-03-28T19:56:07.807Z,6.50
2018-03-28T19:58:35.252Z,6.50
2018-03-28T20:01:02.680Z,6.40
2018-03-28T20:03:30.930Z,6.30
2018-03-28T20:05:58.408Z,6.30
2018-03-28T20:08:25.873Z,6.20
2018-03-28T20:10:53.604Z,6.20
2018-03-28T20:13:21.039Z,6.20
2018-03-28T20:15:48.543Z,6.10
2018-03-28T20:18:15.973Z,6.10
2018-03-28T20:20:43.440Z,6.10
2018-03-28T20:23:10.928Z,6.10
2018-03-28T20:25:38.488Z,6.00
2018-03-28T20:28:05.933Z,6.00
2018-03-28T20:30:33.411Z,6.00
2018-03-28T20:33:00.892Z,6.00
2018-03-28T20:35:28.327Z,6.00
2018-03-28T20:37:55.795Z,6.00
2018-03-28T20:40:23.250Z,5.90
2018-03-28T20:42:50.684Z,5.90
2018-03-28T20:45:18.131Z,5.90
2018-03-28T20:47:46.332Z,5.90
2018-03-28T20:50:13.777Z,5.80
2018-03-28T20:52:41.976Z,5.80
2018-03-28T20:55:09.487Z,5.80
2018-03-28T20:57:37.023Z,5.80
2018-03-28T21:00:04.475Z,5.80
2018-03-28T21:02:31.947Z,5.70
2018-03-28T21:04:59.392Z,5.70
2018-03-28T21:07:26.867Z,5.70
2018-03-28T21:09:54.320Z,5.70
2018-03-28T21:12:21.892Z,5.60
2018-03-28T21:14:49.339Z,5.50
2018-03-28T21:17:16.771Z,5.50
2018-03-28T21:19:44.997Z,5.30
2018-03-28T21:22:12.436Z,5.30
2018-03-28T21:24:39.886Z,5.30
2018-03-28T21:27:07.411Z,5.20
2018-03-28T21:29:34.940Z,5.20
2018-03-28T21:32:02.431Z,5.10
2018-03-28T21:34:29.947Z,5.10
2018-03-28T21:36:57.364Z,5.00
2018-03-28T21:39:24.888Z,5.00
2018-03-28T21:41:52.336Z,5.00
2018-03-28T21:44:19.816Z,5.00
2018-03-28T21:46:47.264Z,4.90
2018-03-28T21:49:14.708Z,4.90
2018-03-28T21:51:42.197Z,4.90
2018-03-28T21:54:09.658Z,4.80
2018-03-28T21:56:37.143Z,4.80
2018-03-28T21:59:04.684Z,4.70
2018-03-28T22:01:32.154Z,4.70
2018-03-28T22:03:59.603Z,4.70
2018-03-28T22:06:27.083Z,4.70
2018-03-28T22:08:54.506Z,4.60
2018-03-28T22:11:21.988Z,4.60
2018-03-28T22:13:49.420Z,4.60
2018-03-28T22:16:16.883Z,4.60
2018-03-28T22:18:44.378Z,4.60
2018-03-28T22:21:11.842Z,4.50
2018-03-28T22:23:39.283Z,4.50
2018-03-28T22:26:06.770Z,4.50
2018-03-28T22:28:34.220Z,4.60
2018-03-28T22:31:01.693Z,4.60
2018-03-28T22:33:29.158Z,4.60
2018-03-28T22:35:56.603Z,4.50
2018-03-28T22:38:24.035Z,4.50
2018-03-28T22:40:51.481Z,4.50
2018-03-28T22:43:19.722Z,4.50
2018-03-28T22:45:47.170Z,4.50
2018-03-28T22:48:14.628Z,4.50
2018-03-28T22:50:42.093Z,4.50
2018-03-28T22:53:09.527Z,4.50
2018-03-28T22:55:36.977Z,4.50
2018-03-28T22:58:04.480Z,4.50
2018-03-28T23:00:31.941Z,4.60
2018-03-28T23:02:59.410Z,4.60
2018-03-28T23:05:26.845Z,4.60
2018-03-28T23:07:54.327Z,4.60
2018-03-28T23:10:21.764Z,4.60
2018-03-28T23:12:49.205Z,4.60
2018-03-28T23:15:16.648Z,4.60
2018-03-28T23:17:44.091Z,4.60
2018-03-28T23:20:11.519Z,4.60
2018-03-28T23:22:38.968Z,4.60
2018-03-28T23:25:06.407Z,4.60
2018-03-28T23:27:34.615Z,4.60
2018-03-28T23:30:02.097Z,4.60
2018-03-28T23:32:29.540Z,4.60
2018-03-28T23:34:56.983Z,4.70
2018-03-28T23:37:24.487Z,4.70
2018-03-28T23:39:51.916Z,4.70
2018-03-28T23:42:19.509Z,4.70
2018-03-28T23:44:46.901Z,4.70
2018-03-28T23:47:15.112Z,4.70
2018-03-28T23:49:42.601Z,4.60
2018-03-28T23:52:10.064Z,4.70
2018-03-28T23:54:37.519Z,4.70
2018-03-28T23:57:04.975Z,4.70
2018-03-28T23:59:32.407Z,4.60
